Time;durP1;ratioP1;P1;durP2;ratioP2;P2;SDS_P1;SDS_P2;PMS_P1;PMS_P2;Temp;Humidity;BMP_temperature;BMP_pressure;BME280_temperature;BME280_humidity;BME280_pressure;Samples;Min_cycle;Max_cycle;Signal;HPM_P1;HPM_P2
2023/12/10 00:02:20;;;;;;;1.15;1.05;;;;;;;1.41;100.00;100880.09;5061721;28;20060;-81
2023/12/10 00:04:46;;;;;;;0.50;0.50;;;;;;;1.92;100.00;100952.19;5063045;28;20148;-78
2023/12/10 00:07:12;;;;;;;0.80;0.80;;;;;;;1.55;100.00;100888.47;5057345;28;20033;-78
2023/12/10 00:09:37;;;;;;;0.75;0.75;;;;;;;1.10;100.00;100852.00;5062499;28;20102;-85
2023/12/10 00:12:03;;;;;;;6.20;5.80;;;;;;;0.95;100.00;100833.22;5064326;28;20416;-78
2023/12/10 00:14:28;;;;;;;1.77;1.67;;;;;;;1.29;100.00;100860.56;5062249;28;20142;-77
2023/12/10 00:16:55;;;;;;;2.17;2.08;;;;;;;0.57;100.00;100771.25;5060579;28;20155;-78
2023/12/10 00:19:20;;;;;;;4.00;3.70;;;;;;;1.71;100.00;100967.63;5062782;28;20033;-78
2023/12/10 00:21:46;;;;;;;3.45;3.25;;;;;;;1.15;100.00;100865.13;5065124;28;20119;-76
2023/12/10 00:24:12;;;;;;;0.55;0.55;;;;;;;1.21;100.00;100848.19;5064369;28;20043;-78
2023/12/10 00:26:37;;;;;;;4.18;3.92;;;;;;;0.71;100.00;100812.31;5061639;28;20049;-79
2023/12/10 00:29:03;;;;;;;0.75;0.75;;;;;;;1.76;100.00;100968.72;5066366;28;20045;-86
2023/12/10 00:31:29;;;;;;;0.88;0.88;;;;;;;1.67;100.00;100960.53;5071068;28;20199;-80
2023/12/10 00:33:54;;;;;;;2.55;2.38;;;;;;;1.46;100.00;100926.84;5067016;28;20036;-79
2023/12/10 00:36:20;;;;;;;1.20;1.17;;;;;;;1.01;100.00;100833.50;5058130;28;20056;-77
2023/12/10 00:38:45;;;;;;;1.40;1.30;;;;;;;1.65;100.00;100936.31;5044591;28;20045;-75
2023/12/10 00:41:12;;;;;;;0.52;0.52;;;;;;;1.11;100.00;100834.78;5057775;28;20052;-79
2023/12/10 00:43:41;;;;;;;1.08;1.08;;;;;;;0.99;100.00;100846.34;5069146;28;20075;-79
2023/12/10 00:46:07;;;;;;;5.75;5.47;;;;;;;1.16;100.00;100859.13;5070272;28;20048;-77
2023/12/10 00:48:36;;;;;;;0.43;0.43;;;;;;;0.03;100.00;100693.03;5064691;28;20598;-78
2023/12/10 00:51:02;;;;;;;16.95;7.63;;;;;;;0.88;100.00;100810.50;5067150;28;20049;-75
2023/12/10 00:53:28;;;;;;;0.50;0.50;;;;;;;0.85;100.00;100819.00;5057618;28;20041;-75
2023/12/10 00:55:53;;;;;;;2.00;1.90;;;;;;;1.46;100.00;100899.28;5064362;28;20064;-74
2023/12/10 00:58:19;;;;;;;0.73;0.60;;;;;;;0.98;100.00;100811.00;5060403;28;20068;-74
2023/12/10 01:00:44;;;;;;;0.47;0.47;;;;;;;1.47;100.00;100895.91;5058181;28;20512;-74
2023/12/10 01:03:10;;;;;;;1.45;0.85;;;;;;;0.97;100.00;100811.78;5056277;28;20090;-75
2023/12/10 01:05:36;;;;;;;2.35;2.15;;;;;;;1.64;100.00;100924.22;5056948;28;20130;-74
2023/12/10 01:08:04;;;;;;;0.82;0.82;;;;;;;1.47;100.00;100921.75;5056214;28;20037;-81
2023/12/10 01:10:30;;;;;;;0.77;0.77;;;;;;;1.45;100.00;100866.50;5056368;28;20028;-83
2023/12/10 01:12:56;;;;;;;9.40;2.75;;;;;;;1.61;100.00;100869.75;5060476;28;20052;-84
2023/12/10 01:15:32;;;;;;;8.77;7.10;;;;;;;1.32;100.00;100847.78;5054470;28;20049;-84
2023/12/10 01:18:01;;;;;;;0.38;0.38;;;;;;;1.12;100.00;100845.19;5061353;28;20091;-85
2023/12/10 01:20:33;;;;;;;2.95;2.85;;;;;;;1.04;100.00;100784.53;5059431;28;20075;-83
2023/12/10 01:22:59;;;;;;;8.88;6.82;;;;;;;1.24;100.00;100800.91;5058222;28;20060;-83
2023/12/10 01:25:25;;;;;;;0.57;0.57;;;;;;;1.42;100.00;100857.72;5047269;28;20563;-80
2023/12/10 01:27:52;;;;;;;5.63;5.25;;;;;;;1.66;100.00;100888.91;5056530;28;20040;-80
2023/12/10 01:30:23;;;;;;;2.75;2.47;;;;;;;1.58;100.00;100891.19;5061407;28;20046;-82
2023/12/10 01:32:53;;;;;;;0.77;0.77;;;;;;;1.14;100.00;100786.69;5064871;28;20063;-81
2023/12/10 01:35:19;;;;;;;1.00;1.00;;;;;;;1.14;100.00;100770.31;5061771;28;20041;-79
2023/12/10 01:37:45;;;;;;;2.63;2.47;;;;;;;1.75;100.00;100891.91;5060197;28;20044;-80
2023/12/10 01:40:11;;;;;;;0.80;0.80;;;;;;;1.69;100.00;100877.03;5066379;28;20028;-82
2023/12/10 01:42:37;;;;;;;1.45;1.35;;;;;;;1.38;100.00;100832.53;5055868;28;20090;-79
2023/12/10 01:45:06;;;;;;;1.90;1.80;;;;;;;1.61;100.00;100882.66;5057205;28;20044;-84
2023/12/10 01:47:35;;;;;;;3.60;3.38;;;;;;;1.26;100.00;100838.97;5066358;28;20083;-81
2023/12/10 01:50:04;;;;;;;0.50;0.50;;;;;;;1.07;100.00;100779.50;5064222;28;20053;-83
2023/12/10 01:52:34;;;;;;;0.63;0.55;;;;;;;1.60;100.00;100842.13;5063588;28;20388;-82
2023/12/10 01:55:03;;;;;;;0.40;0.40;;;;;;;1.20;100.00;100760.25;5066420;28;20043;-82
2023/12/10 01:57:32;;;;;;;0.57;0.57;;;;;;;0.76;100.00;100741.97;5061232;28;20137;-84
2023/12/10 01:59:58;;;;;;;0.68;0.68;;;;;;;0.75;100.00;100705.75;5037516;28;20095;-83
2023/12/10 02:02:25;;;;;;;1.38;1.27;;;;;;;1.64;100.00;100864.72;5045322;28;20748;-82
2023/12/10 02:04:54;;;;;;;4.63;4.32;;;;;;;1.39;100.00;100817.09;5063020;28;20151;-83
2023/12/10 02:07:21;;;;;;;0.60;0.60;;;;;;;1.07;100.00;100761.41;5061276;28;20032;-82
2023/12/10 02:09:46;;;;;;;1.85;1.75;;;;;;;1.14;100.00;100755.69;5063485;28;20717;-82
2023/12/10 02:12:13;;;;;;;0.95;0.93;;;;;;;0.57;100.00;100749.72;5061660;28;20083;-84
2023/12/10 02:14:39;;;;;;;0.90;0.90;;;;;;;1.46;100.00;100854.44;5064207;28;20076;-81
2023/12/10 02:17:04;;;;;;;0.63;0.63;;;;;;;1.33;100.00;100803.91;5064383;28;20037;-84
2023/12/10 02:19:30;;;;;;;0.40;0.40;;;;;;;0.95;100.00;100732.47;5063224;28;20067;-85
2023/12/10 02:21:58;;;;;;;1.17;1.10;;;;;;;1.59;100.00;100822.22;5066337;28;20343;-82
2023/12/10 02:24:29;;;;;;;7.40;6.80;;;;;;;1.03;100.00;100736.25;5026808;28;20045;-83
2023/12/10 02:26:55;;;;;;;0.40;0.40;;;;;;;1.65;100.00;100817.34;5064676;28;20389;-84
2023/12/10 02:29:22;;;;;;;7.00;6.60;;;;;;;1.43;100.00;100795.75;5045534;28;20241;-85
2023/12/10 02:31:48;;;;;;;9.25;5.72;;;;;;;1.52;100.00;100833.13;5064991;28;20052;-84
2023/12/10 02:34:15;;;;;;;3.50;1.75;;;;;;;1.20;100.00;100750.78;5067742;28;20028;-79
2023/12/10 02:36:41;;;;;;;0.82;0.82;;;;;;;1.45;100.00;100772.50;5068931;28;20060;-83
2023/12/10 02:39:10;;;;;;;2.25;2.05;;;;;;;1.43;100.00;100787.09;5066685;28;20079;-84
2023/12/10 02:41:36;;;;;;;0.50;0.50;;;;;;;0.61;100.00;100706.03;5063557;28;20507;-85
2023/12/10 02:44:01;;;;;;;21.25;19.48;;;;;;;1.25;100.00;100769.09;5059306;28;20102;-83
2023/12/10 02:46:28;;;;;;;1.20;1.10;;;;;;;1.11;100.00;100737.47;5050424;28;20032;-86
2023/12/10 02:48:54;;;;;;;1.95;1.85;;;;;;;1.64;100.00;100834.56;5068573;28;20028;-85
2023/12/10 02:51:21;;;;;;;2.92;2.83;;;;;;;1.80;100.00;100845.53;5061401;28;20492;-83
2023/12/10 02:53:46;;;;;;;0.45;0.45;;;;;;;1.78;100.00;100837.75;5061861;28;20143;-84
2023/12/10 02:56:13;;;;;;;1.33;1.23;;;;;;;1.23;100.00;100761.25;5060350;28;20456;-84
2023/12/10 02:58:38;;;;;;;0.70;0.70;;;;;;;1.31;100.00;100786.56;5067741;28;20079;-82
2023/12/10 03:01:05;;;;;;;0.40;0.40;;;;;;;1.15;100.00;100728.16;5063824;28;20416;-85
2023/12/10 03:03:31;;;;;;;2.22;2.13;;;;;;;1.59;100.00;100841.25;5042490;28;20092;-83
2023/12/10 03:05:57;;;;;;;5.63;4.43;;;;;;;0.97;100.00;100736.88;5064455;28;20078;-82
2023/12/10 03:08:22;;;;;;;3.33;3.13;;;;;;;0.79;100.00;100693.03;5064347;28;20393;-84
2023/12/10 03:10:48;;;;;;;0.50;0.50;;;;;;;0.95;100.00;100754.00;5054644;28;20140;-83
2023/12/10 03:13:13;;;;;;;0.80;0.80;;;;;;;1.03;100.00;100737.16;5039542;28;20399;-79
2023/12/10 03:15:40;;;;;;;3.25;3.05;;;;;;;1.21;100.00;100765.47;5043290;28;20044;-80
2023/12/10 03:18:07;;;;;;;1.50;1.40;;;;;;;1.62;100.00;100824.97;5064172;28;20293;-83
2023/12/10 03:20:33;;;;;;;4.18;3.95;;;;;;;1.54;100.00;100809.09;5063750;28;20139;-82
2023/12/10 03:23:01;;;;;;;0.73;0.73;;;;;;;1.02;100.00;100716.41;5064476;28;20048;-82
2023/12/10 03:25:27;;;;;;;2.58;2.47;;;;;;;0.73;100.00;100702.22;5061300;28;21020;-85
2023/12/10 03:27:52;;;;;;;5.60;5.30;;;;;;;1.30;100.00;100758.94;5070058;28;20119;-82
2023/12/10 03:30:18;;;;;;;0.55;0.55;;;;;;;0.82;100.00;100712.97;5060920;28;20049;-82
2023/12/10 03:32:43;;;;;;;0.70;0.70;;;;;;;1.42;100.00;100829.28;5065242;28;20047;-83
2023/12/10 03:35:09;;;;;;;29.33;10.38;;;;;;;0.94;100.00;100744.50;5062948;28;20045;-84
2023/12/10 03:37:34;;;;;;;2.25;2.15;;;;;;;0.87;100.00;100716.63;5064460;28;20052;-82
2023/12/10 03:40:00;;;;;;;1.77;1.67;;;;;;;1.30;100.00;100814.09;5045194;28;20035;-82
2023/12/10 03:42:25;;;;;;;0.40;0.40;;;;;;;0.93;100.00;100728.91;5065631;28;20049;-82
2023/12/10 03:44:51;;;;;;;1.60;1.50;;;;;;;1.04;100.00;100746.66;5060109;28;20044;-80
2023/12/10 03:47:16;;;;;;;1.80;1.70;;;;;;;0.87;100.00;100737.28;5058417;28;20614;-79
2023/12/10 03:49:43;;;;;;;0.43;0.43;;;;;;;1.42;100.00;100837.91;5060709;28;20204;-82
2023/12/10 03:52:08;;;;;;;2.28;2.20;;;;;;;0.72;100.00;100716.81;5059455;28;20060;-82
2023/12/10 03:54:34;;;;;;;0.73;0.73;;;;;;;0.98;100.00;100761.91;5044746;28;20100;-82
2023/12/10 03:56:59;;;;;;;1.15;1.10;;;;;;;0.93;100.00;100747.88;5062183;28;20136;-82
2023/12/10 03:59:25;;;;;;;2.67;2.58;;;;;;;0.65;100.00;100706.16;5059268;28;20167;-81
2023/12/10 04:01:50;;;;;;;1.02;1.02;;;;;;;0.94;100.00;100739.34;5062460;28;20045;-82
2023/12/10 04:04:16;;;;;;;0.40;0.40;;;;;;;0.74;100.00;100680.75;5064789;28;20144;-82
2023/12/10 04:06:42;;;;;;;0.60;0.60;;;;;;;1.67;100.00;100837.28;5061151;28;20039;-86
2023/12/10 04:09:09;;;;;;;1.10;1.10;;;;;;;1.08;100.00;100745.09;5035571;28;20134;-85
2023/12/10 04:11:36;;;;;;;3.88;3.70;;;;;;;1.42;100.00;100822.38;5059933;28;20150;-84
2023/12/10 04:14:02;;;;;;;11.05;7.72;;;;;;;0.73;100.00;100690.19;5063554;28;20032;-85
2023/12/10 04:16:29;;;;;;;0.60;0.60;;;;;;;1.52;100.00;100831.44;5057761;28;20149;-84
2023/12/10 04:18:55;;;;;;;0.90;0.90;;;;;;;0.20;100.00;100714.47;5038016;28;20059;-83
2023/12/10 04:21:22;;;;;;;0.50;0.50;;;;;;;1.40;100.00;100839.53;5061178;28;20056;-86
2023/12/10 04:23:49;;;;;;;4.80;4.03;;;;;;;0.92;100.00;100733.22;5035233;28;20498;-86
2023/12/10 04:26:16;;;;;;;1.85;1.42;;;;;;;1.06;100.00;100821.66;5061991;28;20056;-86
2023/12/10 04:28:42;;;;;;;2.83;2.63;;;;;;;0.85;100.00;100806.09;5063397;28;20048;-88
2023/12/10 04:31:08;;;;;;;1.45;1.33;;;;;;;0.69;100.00;100720.97;5061823;28;20075;-86
2023/12/10 04:33:34;;;;;;;2.83;2.72;;;;;;;0.74;100.00;100722.94;5061560;28;20045;-85
2023/12/10 04:36:00;;;;;;;0.70;0.70;;;;;;;0.88;100.00;100767.47;5059523;28;20036;-86
2023/12/10 04:38:28;;;;;;;0.80;0.80;;;;;;;0.84;100.00;100739.72;5058914;28;20044;-86
2023/12/10 04:40:53;;;;;;;0.40;0.40;;;;;;;1.26;100.00;100805.34;5060798;28;20048;-88
2023/12/10 04:43:19;;;;;;;2.90;2.60;;;;;;;1.35;100.00;100817.78;5059571;28;20557;-89
2023/12/10 04:45:46;;;;;;;45.88;30.63;;;;;;;1.33;100.00;100803.91;5056540;28;20102;-84
2023/12/10 04:48:13;;;;;;;1.23;1.17;;;;;;;0.92;100.00;100735.78;5064928;28;20040;-87
2023/12/10 04:50:39;;;;;;;3.05;1.63;;;;;;;0.87;100.00;100724.38;5064175;28;20080;-83
2023/12/10 04:53:04;;;;;;;2.85;2.65;;;;;;;1.40;100.00;100810.22;5046699;28;20072;-81
2023/12/10 04:55:30;;;;;;;0.90;0.90;;;;;;;0.85;100.00;100736.34;5064326;28;20032;-80
2023/12/10 04:57:56;;;;;;;1.52;1.42;;;;;;;1.19;100.00;100773.97;5059611;28;20058;-82
2023/12/10 05:00:21;;;;;;;5.18;4.90;;;;;;;0.99;100.00;100731.78;5061701;28;20045;-83
2023/12/10 05:02:47;;;;;;;0.50;0.50;;;;;;;1.17;100.00;100817.88;5066299;28;20064;-78
2023/12/10 05:05:14;;;;;;;0.40;0.40;;;;;;;1.29;100.00;100811.44;5056685;28;20045;-82
2023/12/10 05:07:39;;;;;;;4.72;1.85;;;;;;;1.00;100.00;100752.50;5055350;28;20817;-82
2023/12/10 05:10:05;;;;;;;0.60;0.60;;;;;;;1.58;100.00;100859.28;5038435;28;20041;-82
2023/12/10 05:12:31;;;;;;;1.85;0.77;;;;;;;1.50;100.00;100848.59;5037314;28;20599;-83
2023/12/10 05:14:56;;;;;;;1.23;1.23;;;;;;;0.79;100.00;100764.47;5036814;28;20059;-81
2023/12/10 05:17:22;;;;;;;0.82;0.82;;;;;;;0.79;100.00;100779.97;5039239;28;20095;-82
2023/12/10 05:19:48;;;;;;;0.30;0.30;;;;;;;1.22;100.00;100856.84;5040032;28;20401;-81
2023/12/10 05:22:13;;;;;;;1.13;1.02;;;;;;;-0.23;100.00;100576.66;5043897;28;20116;-83
2023/12/10 05:24:42;;;;;;;0.47;0.47;;;;;;;0.96;100.00;100773.88;5045960;28;20132;-83
2023/12/10 05:27:08;;;;;;;2.85;2.70;;;;;;;1.36;100.00;100857.44;5038494;28;20060;-80
2023/12/10 05:29:33;;;;;;;1.02;1.02;;;;;;;1.24;100.00;100839.69;5040885;28;20396;-83
2023/12/10 05:31:59;;;;;;;0.40;0.40;;;;;;;1.17;100.00;100823.03;5046865;28;20053;-82
2023/12/10 05:34:25;;;;;;;5.20;4.93;;;;;;;0.43;100.00;100717.22;5029515;28;20044;-81
2023/12/10 05:36:50;;;;;;;1.13;1.02;;;;;;;0.83;100.00;100749.19;5065525;28;20033;-79
2023/12/10 05:39:16;;;;;;;1.80;1.70;;;;;;;0.74;100.00;100753.06;5066628;28;20416;-79
2023/12/10 05:41:41;;;;;;;0.57;0.57;;;;;;;0.44;100.00;100734.47;5062867;28;20088;-83
2023/12/10 05:44:07;;;;;;;1.30;1.20;;;;;;;1.36;100.00;100848.00;5060182;28;20427;-83
2023/12/10 05:46:33;;;;;;;0.40;0.40;;;;;;;1.32;100.00;100852.97;5064092;28;20155;-84
2023/12/10 05:48:58;;;;;;;0.60;0.60;;;;;;;1.23;100.00;100849.13;5071680;28;20028;-80
2023/12/10 05:51:24;;;;;;;0.73;0.73;;;;;;;0.49;100.00;100717.47;5068187;28;20143;-84
2023/12/10 05:53:50;;;;;;;0.30;0.30;;;;;;;1.25;100.00;100847.50;5066592;28;20083;-83
2023/12/10 05:56:16;;;;;;;0.50;0.50;;;;;;;0.92;100.00;100849.47;5066761;28;20075;-85
2023/12/10 05:58:42;;;;;;;0.73;0.73;;;;;;;0.90;100.00;100788.22;5063814;28;20400;-84
2023/12/10 06:01:09;;;;;;;3.33;2.80;;;;;;;0.34;100.00;100704.78;5068423;28;20423;-86
2023/12/10 06:03:34;;;;;;;1.17;1.17;;;;;;;1.29;100.00;100840.78;5064396;28;20126;-82
2023/12/10 06:06:00;;;;;;;5.80;5.25;;;;;;;1.30;100.00;100845.13;5064925;28;20412;-83
2023/12/10 06:08:26;;;;;;;1.15;1.05;;;;;;;1.06;100.00;100834.59;5064802;28;20052;-84
2023/12/10 06:10:51;;;;;;;0.52;0.52;;;;;;;0.88;100.00;100823.41;5046968;28;20041;-88
2023/12/10 06:13:17;;;;;;;1.10;0.85;;;;;;;0.53;100.00;100727.16;5069156;28;20119;-86
2023/12/10 06:15:44;;;;;;;0.90;0.90;;;;;;;0.76;100.00;100797.91;5067879;28;20131;-91
2023/12/10 06:18:09;;;;;;;2.00;1.90;;;;;;;0.63;100.00;100750.88;5065697;28;20040;-87
2023/12/10 06:20:36;;;;;;;2.15;2.05;;;;;;;0.52;100.00;100721.09;5056996;28;20567;-90
2023/12/10 06:23:02;;;;;;;0.88;0.88;;;;;;;1.35;100.00;100842.75;5070416;28;20052;-85
2023/12/10 06:25:29;;;;;;;0.30;0.30;;;;;;;0.40;100.00;100707.66;5080665;28;20033;-84
2023/12/10 06:27:56;;;;;;;2.95;1.10;;;;;;;0.78;100.00;100727.44;5077089;28;20028;-88
2023/12/10 06:30:22;;;;;;;3.85;3.65;;;;;;;1.32;100.00;100847.78;5066485;28;20066;-83
2023/12/10 06:32:48;;;;;;;0.50;0.50;;;;;;;1.12;100.00;100850.34;5028880;28;20080;-81
2023/12/10 06:35:14;;;;;;;5.07;4.78;;;;;;;0.76;100.00;100811.72;5065680;28;20197;-82
2023/12/10 06:37:40;;;;;;;5.75;5.40;;;;;;;0.62;100.00;100724.97;5043300;28;20182;-81
2023/12/10 06:40:07;;;;;;;0.85;0.82;;;;;;;1.24;100.00;100832.84;5065768;28;20135;-81
2023/12/10 06:42:33;;;;;;;1.35;1.25;;;;;;;0.10;100.00;100692.50;5066621;28;20045;-82
2023/12/10 06:44:59;;;;;;;1.70;1.60;;;;;;;0.53;100.00;100743.50;5061422;28;20118;-81
2023/12/10 06:47:24;;;;;;;0.50;0.50;;;;;;;0.41;100.00;100748.13;5065388;28;20060;-85
2023/12/10 06:49:50;;;;;;;1.17;0.80;;;;;;;0.85;100.00;100808.66;5066264;28;20072;-84
2023/12/10 06:52:16;;;;;;;2.60;2.45;;;;;;;0.21;100.00;100723.94;5064916;28;20264;-82
2023/12/10 06:54:44;;;;;;;0.95;0.95;;;;;;;0.51;100.00;100708.13;5060971;28;20120;-82
2023/12/10 06:57:10;;;;;;;0.77;0.77;;;;;;;0.72;100.00;100752.97;5064224;28;20453;-81
2023/12/10 06:59:36;;;;;;;0.85;0.85;;;;;;;0.51;100.00;100702.94;5062203;28;20462;-82
2023/12/10 07:02:01;;;;;;;0.60;0.60;;;;;;;0.43;100.00;100731.00;5052592;28;20048;-83
2023/12/10 07:04:28;;;;;;;10.35;7.53;;;;;;;0.40;100.00;100687.00;5061410;28;20803;-81
2023/12/10 07:06:54;;;;;;;4.35;4.03;;;;;;;0.81;100.00;100807.63;5063306;28;20064;-84
2023/12/10 07:09:19;;;;;;;0.68;0.68;;;;;;;1.07;100.00;100836.34;5061594;28;20159;-84
2023/12/10 07:11:45;;;;;;;0.73;0.73;;;;;;;0.45;100.00;100723.34;5061559;28;20144;-83
2023/12/10 07:14:11;;;;;;;4.50;4.25;;;;;;;1.17;100.00;100829.88;5064627;28;20070;-84
2023/12/10 07:16:36;;;;;;;5.55;3.60;;;;;;;1.00;100.00;100818.78;5066380;28;20045;-85
2023/12/10 07:19:02;;;;;;;8.00;7.38;;;;;;;0.93;100.00;100819.34;5059117;28;20404;-83
2023/12/10 07:21:27;;;;;;;4.20;4.00;;;;;;;1.19;100.00;100825.66;5064605;28;20048;-84
2023/12/10 07:23:53;;;;;;;1.05;1.05;;;;;;;1.42;100.00;100856.00;5067314;28;20051;-85
2023/12/10 07:26:23;;;;;;;2.25;2.15;;;;;;;0.94;100.00;100777.22;5062646;28;20044;-80
2023/12/10 07:28:51;;;;;;;0.50;0.50;;;;;;;0.56;100.00;100742.75;5071641;28;20442;-81
2023/12/10 07:31:20;;;;;;;1.63;1.52;;;;;;;1.17;100.00;100866.06;5059073;28;20122;-82
2023/12/10 07:33:47;;;;;;;1.25;1.25;;;;;;;0.71;100.00;100758.97;5065402;28;20119;-82
2023/12/10 07:36:14;;;;;;;0.85;0.85;;;;;;;1.36;100.00;100857.44;5063807;28;20098;-81
2023/12/10 07:38:42;;;;;;;22.90;9.82;;;;;;;0.82;100.00;100781.00;5066241;28;20041;-83
2023/12/10 07:41:08;;;;;;;6.40;5.97;;;;;;;0.49;100.00;100751.03;5066246;28;20523;-82
2023/12/10 07:43:33;;;;;;;2.40;2.28;;;;;;;0.69;100.00;100750.25;5064555;28;20056;-84
2023/12/10 07:46:00;;;;;;;2.83;2.67;;;;;;;0.41;100.00;100763.59;5062739;28;20077;-83
2023/12/10 07:48:26;;;;;;;0.68;0.68;;;;;;;0.51;100.00;100741.69;5044109;28;20139;-83
2023/12/10 07:50:52;;;;;;;1.23;1.17;;;;;;;1.40;100.00;100878.31;5068534;28;20052;-83
2023/12/10 07:53:17;;;;;;;0.50;0.50;;;;;;;1.32;100.00;100838.31;5062970;28;20044;-79
2023/12/10 07:55:44;;;;;;;0.82;0.70;;;;;;;1.27;100.00;100851.06;5066099;28;20053;-84
2023/12/10 07:58:09;;;;;;;1.75;1.65;;;;;;;1.52;100.00;100859.88;5037723;28;20074;-81
2023/12/10 08:00:35;;;;;;;2.15;2.05;;;;;;;1.17;100.00;100864.38;5064825;28;20051;-80
2023/12/10 08:03:00;;;;;;;1.05;1.02;;;;;;;0.61;100.00;100747.34;5043000;28;20048;-80
2023/12/10 08:05:26;;;;;;;0.60;0.60;;;;;;;0.65;100.00;100787.09;5067393;28;20599;-81
2023/12/10 08:07:51;;;;;;;9.48;8.50;;;;;;;0.92;100.00;100794.34;5059763;28;20041;-80
2023/12/10 08:10:18;;;;;;;3.05;2.95;;;;;;;0.60;100.00;100776.53;5064818;28;20123;-80
2023/12/10 08:12:44;;;;;;;4.53;4.28;;;;;;;0.57;100.00;100798.78;5058511;28;20054;-81
2023/12/10 08:15:10;;;;;;;2.58;1.52;;;;;;;1.16;100.00;100893.63;5061320;28;20060;-80
2023/12/10 08:17:35;;;;;;;2.53;2.33;;;;;;;1.37;100.00;100895.41;5055290;28;20084;-78
2023/12/10 08:20:02;;;;;;;2.03;1.92;;;;;;;0.90;100.00;100866.59;5042516;28;20532;-79
2023/12/10 08:22:28;;;;;;;1.27;1.27;;;;;;;0.40;100.00;100738.63;5034415;28;20045;-80
2023/12/10 08:24:54;;;;;;;0.88;0.80;;;;;;;1.17;100.00;100899.66;5063799;28;20029;-79
2023/12/10 08:27:19;;;;;;;34.70;17.83;;;;;;;1.43;100.00;100901.75;5058345;28;20052;-80
2023/12/10 08:29:45;;;;;;;11.10;10.45;;;;;;;1.20;100.00;100846.44;5040872;28;20132;-87
2023/12/10 08:32:10;;;;;;;1.75;0.80;;;;;;;0.93;100.00;100803.84;5076076;28;20039;-81
2023/12/10 08:34:36;;;;;;;0.57;0.57;;;;;;;1.46;100.00;100870.84;5084305;28;20048;-83
2023/12/10 08:37:03;;;;;;;0.68;0.68;;;;;;;1.67;100.00;100895.88;5084964;28;20123;-83
2023/12/10 08:39:29;;;;;;;1.98;1.88;;;;;;;1.05;100.00;100802.72;5072029;28;20129;-87
2023/12/10 08:41:54;;;;;;;2.97;2.85;;;;;;;0.97;100.00;100790.25;5046691;28;20076;-86
2023/12/10 08:44:20;;;;;;;1.80;1.70;;;;;;;1.17;100.00;100791.13;5057012;28;20795;-85
2023/12/10 08:46:46;;;;;;;9.18;7.72;;;;;;;1.75;100.00;100871.22;5059567;28;20102;-84
2023/12/10 08:49:12;;;;;;;2.95;2.75;;;;;;;1.24;100.00;100819.00;5066021;28;20048;-84
2023/12/10 08:51:37;;;;;;;1.33;1.23;;;;;;;1.11;100.00;100874.44;5060829;28;20095;-85
2023/12/10 08:54:03;;;;;;;2.30;2.20;;;;;;;1.42;100.00;100873.22;5057720;28;20492;-85
2023/12/10 08:56:29;;;;;;;0.50;0.50;;;;;;;0.80;100.00;100743.00;5057438;28;20229;-85
2023/12/10 08:58:54;;;;;;;1.58;1.48;;;;;;;0.54;100.00;100697.91;5064780;28;20049;-80
2023/12/10 09:01:20;;;;;;;1.15;1.15;;;;;;;1.19;100.00;100787.78;5067547;28;20107;-83
2023/12/10 09:03:46;;;;;;;1.13;1.02;;;;;;;1.52;100.00;100859.88;5056700;28;20082;-81
2023/12/10 09:06:12;;;;;;;1.95;1.85;;;;;;;1.59;100.00;100871.38;5077657;28;20051;-82
2023/12/10 09:08:38;;;;;;;1.70;1.60;;;;;;;0.71;100.00;100753.81;5074883;28;20044;-85
2023/12/10 09:11:04;;;;;;;7.00;6.65;;;;;;;0.85;100.00;100788.00;5058549;28;20045;-81
2023/12/10 09:13:35;;;;;;;1.05;1.05;;;;;;;1.36;100.00;100811.81;5052335;28;20044;-81
2023/12/10 09:16:02;;;;;;;0.77;0.77;;;;;;;0.12;100.00;100633.25;5093652;28;20785;-79
2023/12/10 09:18:27;;;;;;;1.08;1.08;;;;;;;1.62;100.00;100845.66;5085338;28;20067;-82
2023/12/10 09:20:54;;;;;;;4.13;3.08;;;;;;;0.84;100.00;100719.06;5061970;28;20044;-83
2023/12/10 09:23:20;;;;;;;3.55;3.38;;;;;;;0.86;100.00;100720.00;5054945;28;20052;-83
2023/12/10 09:25:46;;;;;;;0.50;0.50;;;;;;;1.25;100.00;100787.19;5055234;28;20041;-87
2023/12/10 09:28:12;;;;;;;1.17;1.17;;;;;;;1.11;100.00;100742.66;5069155;28;20028;-84
2023/12/10 09:30:37;;;;;;;1.10;1.10;;;;;;;1.45;100.00;100843.22;5069204;28;20040;-87
2023/12/10 09:33:05;;;;;;;2.90;2.78;;;;;;;0.96;100.00;100718.72;5051687;28;20427;-74
2023/12/10 09:35:32;;;;;;;1.95;0.95;;;;;;;1.88;100.00;100826.06;5062908;28;20040;-75
2023/12/10 09:37:57;;;;;;;1.38;1.30;;;;;;;1.56;100.00;100819.53;5045722;28;20098;-74
2023/12/10 09:40:23;;;;;;;3.22;3.08;;;;;;;1.69;100.00;100811.47;5059922;28;20496;-75
2023/12/10 09:42:48;;;;;;;1.42;1.27;;;;;;;1.28;100.00;100802.81;5050022;28;20044;-76
2023/12/10 09:45:14;;;;;;;0.60;0.60;;;;;;;1.14;100.00;100802.19;5065689;28;20053;-74
2023/12/10 09:47:43;;;;;;;2.20;2.10;;;;;;;1.66;100.00;100799.31;5065378;28;20531;-75
2023/12/10 09:50:09;;;;;;;2.15;2.05;;;;;;;1.76;100.00;100812.63;5060879;28;20135;-74
2023/12/10 09:52:35;;;;;;;1.20;1.10;;;;;;;1.72;100.00;100802.97;5052643;28;20518;-75
2023/12/10 09:55:01;;;;;;;1.65;1.55;;;;;;;1.88;100.00;100816.59;5043982;28;20045;-76
2023/12/10 09:57:30;;;;;;;0.98;0.98;;;;;;;1.43;100.00;100810.38;5062270;28;20055;-74
2023/12/10 09:59:56;;;;;;;1.38;0.40;;;;;;;0.72;100.00;100705.63;5062829;28;20134;-76
2023/12/10 10:02:30;;;;;;;1.88;1.20;;;;;;;1.07;100.00;100699.38;5054501;28;20515;-74
2023/12/10 10:04:55;;;;;;;1.83;1.75;;;;;;;1.61;100.00;100779.22;5046142;28;20679;-73
2023/12/10 10:07:21;;;;;;;6.22;5.28;;;;;;;0.90;100.00;100716.75;5043121;28;20036;-73
2023/12/10 10:09:47;;;;;;;2.50;2.05;;;;;;;0.79;100.00;100710.22;5043660;28;20033;-75
2023/12/10 10:12:13;;;;;;;1.20;1.10;;;;;;;1.53;100.00;100794.41;5063202;28;20110;-73
2023/12/10 10:14:54;;;;;;;0.65;0.65;;;;;;;0.98;100.00;100725.75;5065247;28;20079;-72
2023/12/10 10:17:27;;;;;;;1.60;1.52;;;;;;;0.68;100.00;100725.28;5061683;28;20526;-72
2023/12/10 10:19:54;;;;;;;1.63;1.52;;;;;;;1.10;100.00;100763.25;5061044;28;20131;-74
2023/12/10 10:22:20;;;;;;;5.57;5.18;;;;;;;1.15;100.00;100746.25;5062365;28;20523;-73
2023/12/10 10:24:45;;;;;;;10.63;9.82;;;;;;;1.69;100.00;100814.94;5062887;28;20170;-75
2023/12/10 10:27:12;;;;;;;6.45;4.43;;;;;;;1.17;100.00;100723.91;5039076;28;20045;-74
2023/12/10 10:29:38;;;;;;;1.13;1.10;;;;;;;1.68;100.00;100826.09;5061498;28;20301;-75
2023/12/10 10:32:04;;;;;;;0.75;0.75;;;;;;;0.82;100.00;100718.13;5060611;28;20040;-74
2023/12/10 10:34:30;;;;;;;1.17;1.15;;;;;;;1.01;100.00;100763.75;5060133;28;20028;-74
2023/12/10 10:36:55;;;;;;;0.52;0.52;;;;;;;1.19;100.00;100815.34;5060093;28;20060;-74
2023/12/10 10:39:22;;;;;;;1.30;1.20;;;;;;;1.33;100.00;100824.56;5061803;28;20048;-73
2023/12/10 10:41:49;;;;;;;0.82;0.82;;;;;;;1.45;100.00;100812.19;5057692;28;20106;-78
2023/12/10 10:44:14;;;;;;;13.57;12.55;;;;;;;1.05;100.00;100727.78;5039531;28;20151;-72
2023/12/10 10:46:40;;;;;;;3.22;2.35;;;;;;;0.84;100.00;100725.13;5064336;28;20548;-72
2023/12/10 10:49:06;;;;;;;2.05;1.95;;;;;;;1.45;100.00;100806.13;5059196;28;20032;-73
2023/12/10 10:51:33;;;;;;;0.50;0.50;;;;;;;1.50;100.00;100773.63;5044654;28;20199;-75
2023/12/10 10:54:03;;;;;;;0.35;0.35;;;;;;;1.65;100.00;100810.44;5060481;28;20075;-75
2023/12/10 10:56:29;;;;;;;0.50;0.50;;;;;;;0.62;100.00;100694.88;5036668;28;20041;-76
2023/12/10 10:58:55;;;;;;;3.30;3.17;;;;;;;1.39;100.00;100806.75;5039165;28;20041;-76
2023/12/10 11:01:42;;;;;;;2.42;2.33;;;;;;;1.26;100.00;100750.16;5063606;28;20123;-76
2023/12/10 11:04:12;;;;;;;10.02;9.18;;;;;;;1.30;100.00;100793.44;5045130;28;20623;-79
2023/12/10 11:06:40;;;;;;;2.15;2.05;;;;;;;0.78;100.00;100680.06;5060552;28;20087;-78
2023/12/10 11:09:07;;;;;;;1.55;1.48;;;;;;;1.25;100.00;100744.13;5052082;28;20524;-79
2023/12/10 11:11:40;;;;;;;4.00;1.70;;;;;;;1.50;100.00;100780.47;5042389;28;20107;-77
2023/12/10 11:14:22;;;;;;;1.58;1.48;;;;;;;1.51;100.00;100774.50;5042056;28;20552;-82
2023/12/10 11:16:59;;;;;;;3.75;0.80;;;;;;;1.24;100.00;100728.53;5035342;28;20057;-85
2023/12/10 11:19:25;;;;;;;0.95;0.95;;;;;;;0.86;100.00;100654.56;5032213;28;20052;-84
2023/12/10 11:21:50;;;;;;;2.28;2.17;;;;;;;1.28;100.00;100730.44;5035774;28;20336;-84